createdAt,value
2018-05-12T00:03:12.377Z,6.83
2018-05-12T00:08:26.663Z,7.43
2018-05-12T00:13:29.935Z,6.77
2018-05-12T00:18:33.170Z,7.43
2018-05-12T00:23:36.398Z,7.40
2018-05-12T00:28:38.866Z,7.70
2018-05-12T00:33:42.102Z,7.80
2018-05-12T00:38:44.560Z,7.03
2018-05-12T00:43:47.802Z,7.40
2018-05-12T00:48:50.262Z,7.73
2018-05-12T00:53:53.469Z,7.33
2018-05-12T00:58:56.680Z,6.90
2018-05-12T01:03:59.894Z,7.27
2018-05-12T01:09:03.112Z,7.03
2018-05-12T01:14:06.323Z,7.53
2018-05-12T01:19:08.779Z,7.03
2018-05-12T01:24:12.273Z,7.30
2018-05-12T01:29:14.864Z,7.60
2018-05-12T01:34:17.297Z,7.87
2018-05-12T01:39:20.543Z,8.07
2018-05-12T01:44:22.994Z,8.30
2018-05-12T01:49:25.534Z,8.17
2018-05-12T01:54:27.974Z,7.93
2018-05-12T01:59:31.185Z,8.00
2018-05-12T02:04:33.901Z,8.20
2018-05-12T02:09:38.468Z,8.40
2018-05-12T02:14:40.973Z,8.73
2018-05-12T02:19:56.629Z,8.40
2018-05-12T02:24:59.084Z,7.73
2018-05-12T02:30:01.535Z,8.60
2018-05-12T02:35:04.748Z,8.43
2018-05-12T02:40:08.070Z,7.83
2018-05-12T02:45:10.534Z,8.83
2018-05-12T02:50:12.981Z,9.07
2018-05-12T03:00:30.867Z,9.13
2018-05-12T03:05:33.306Z,9.00
2018-05-12T03:10:36.546Z,8.33
2018-05-12T03:15:39.002Z,8.67
2018-05-12T03:20:42.228Z,8.60
2018-05-12T03:25:45.442Z,8.93
2018-05-12T03:30:48.674Z,9.20
2018-05-12T03:35:51.110Z,8.83
2018-05-12T03:40:53.558Z,9.87
2018-05-12T03:45:56.009Z,9.73
2018-05-12T03:50:58.459Z,9.23
2018-05-12T03:56:00.949Z,9.77
2018-05-12T04:01:03.669Z,9.87
2018-05-12T04:06:18.018Z,9.87
2018-05-12T04:11:32.561Z,10.30
2018-05-12T04:16:35.090Z,10.00
2018-05-12T04:21:37.733Z,9.47
2018-05-12T04:26:40.449Z,9.70
2018-05-12T04:31:53.178Z,9.80
2018-05-12T04:36:55.618Z,10.20
2018-05-12T04:41:58.270Z,10.70
2018-05-12T04:47:01.499Z,10.47
2018-05-12T04:52:03.938Z,9.83
2018-05-12T04:57:07.678Z,10.50
2018-05-12T05:02:11.993Z,10.37
2018-05-12T05:07:14.456Z,10.43
2018-05-12T05:12:16.909Z,10.57
2018-05-12T05:17:20.157Z,10.17
2018-05-12T05:22:22.678Z,11.77
2018-05-12T05:27:25.129Z,10.70
2018-05-12T05:32:27.629Z,11.20
2018-05-12T05:37:30.077Z,11.27
2018-05-12T05:42:32.531Z,10.47
2018-05-12T05:47:35.000Z,10.93
2018-05-12T05:52:37.457Z,10.83
2018-05-12T05:57:39.920Z,11.90
2018-05-12T06:08:20.729Z,10.93
2018-05-12T06:13:23.286Z,11.30
2018-05-12T06:18:25.744Z,10.13
2018-05-12T06:23:29.403Z,10.93
2018-05-12T06:28:32.615Z,11.87
2018-05-12T06:33:35.974Z,11.60
2018-05-12T06:38:38.374Z,11.33
2018-05-12T06:43:40.834Z,11.20
2018-05-12T06:48:43.322Z,10.90
2018-05-12T06:53:45.767Z,11.13
2018-05-12T06:58:48.228Z,10.87
2018-05-12T07:03:50.716Z,11.60
2018-05-12T07:08:53.139Z,11.43
2018-05-12T07:14:08.173Z,10.43
2018-05-12T07:19:11.448Z,12.07
2018-05-12T07:24:13.898Z,11.10
2018-05-12T07:29:18.425Z,11.97
2018-05-12T07:34:21.602Z,12.07
2018-05-12T07:39:24.823Z,12.27
2018-05-12T07:44:28.042Z,11.70
2018-05-12T07:49:41.132Z,11.70
2018-05-12T07:54:43.698Z,11.83
2018-05-12T07:59:46.906Z,12.93
2018-05-12T08:04:49.412Z,11.83
2018-05-12T08:10:04.390Z,11.17
2018-05-12T08:15:07.221Z,10.90
2018-05-12T08:20:09.678Z,11.17
2018-05-12T08:25:12.139Z,10.83
2018-05-12T08:30:15.350Z,10.03
2018-05-12T08:35:21.912Z,10.67
2018-05-12T08:40:25.181Z,10.93
2018-05-12T08:45:28.371Z,10.87
2018-05-12T08:50:31.585Z,9.27
2018-05-12T08:55:34.035Z,10.83
2018-05-12T09:00:36.481Z,9.27
2018-05-12T09:05:39.018Z,9.13
2018-05-12T09:10:41.482Z,8.50
2018-05-12T09:15:43.937Z,9.60
2018-05-12T09:20:47.269Z,8.40
2018-05-12T09:25:51.376Z,8.20
2018-05-12T09:30:55.273Z,8.50
2018-05-12T09:35:57.797Z,9.90
2018-05-12T09:41:01.155Z,8.00
2018-05-12T09:46:03.610Z,10.17
2018-05-12T09:51:06.040Z,8.73
2018-05-12T09:56:08.487Z,6.97
2018-05-12T10:01:11.759Z,7.10
2018-05-12T10:06:15.070Z,12.20
2018-05-12T10:11:18.305Z,7.80
2018-05-12T10:16:20.835Z,6.77
2018-05-12T10:21:23.314Z,9.30
2018-05-12T10:26:40.556Z,11.63
2018-05-12T10:31:43.796Z,12.30
2018-05-12T10:36:46.248Z,9.87
2018-05-12T10:41:58.389Z,8.90
2018-05-12T10:47:00.860Z,10.33
2018-05-12T10:52:03.299Z,8.23
2018-05-12T10:57:05.747Z,8.40
2018-05-12T11:02:08.957Z,7.50
2018-05-12T11:07:12.175Z,9.40
2018-05-12T11:12:15.389Z,11.10
2018-05-12T11:17:18.056Z,12.57
2018-05-12T11:22:21.483Z,10.57
2018-05-12T11:27:24.863Z,13.97
2018-05-12T11:32:27.304Z,10.63
2018-05-12T11:37:30.510Z,13.03
2018-05-12T11:42:33.740Z,13.10
2018-05-12T11:47:36.318Z,10.17
2018-05-12T11:52:39.545Z,11.47
2018-05-12T11:57:41.987Z,9.80
2018-05-12T12:02:44.434Z,7.43
2018-05-12T12:07:48.030Z,7.40
2018-05-12T12:12:51.255Z,7.20
2018-05-12T12:23:20.390Z,8.17
2018-05-12T12:28:23.620Z,8.27
2018-05-12T12:33:39.301Z,8.30
2018-05-12T12:38:42.501Z,8.23
2018-05-12T12:43:45.717Z,7.27
2018-05-12T12:48:48.186Z,7.90
2018-05-12T12:53:50.625Z,6.87
2018-05-12T12:58:53.216Z,6.87
2018-05-12T13:03:55.683Z,6.97
2018-05-12T13:08:58.205Z,7.10
2018-05-12T13:14:00.650Z,7.03
2018-05-12T13:19:05.486Z,8.03
2018-05-12T13:24:08.537Z,9.27
2018-05-12T13:29:12.499Z,9.77
2018-05-12T13:34:14.985Z,8.40
2018-05-12T13:39:17.458Z,9.93
2018-05-12T13:44:26.549Z,9.90
2018-05-12T13:49:30.297Z,10.13
2018-05-12T13:54:32.798Z,9.00
2018-05-12T13:59:35.277Z,9.30
2018-05-12T14:04:37.745Z,10.00
2018-05-12T14:09:40.220Z,9.73
2018-05-12T14:14:43.471Z,10.83
2018-05-12T14:19:45.914Z,9.83
2018-05-12T14:24:48.369Z,9.67
2018-05-12T14:30:04.971Z,11.03
2018-05-12T14:35:07.438Z,10.50
2018-05-12T14:40:09.939Z,10.33
2018-05-12T14:45:12.377Z,11.20
2018-05-12T14:50:15.778Z,11.10
2018-05-12T14:55:18.229Z,10.73
2018-05-12T15:00:20.708Z,10.50
2018-05-12T15:05:23.146Z,10.37
2018-05-12T15:10:25.597Z,11.13
2018-05-12T15:15:28.146Z,10.87
2018-05-12T15:20:30.594Z,11.17
2018-05-12T15:25:33.205Z,10.30
2018-05-12T15:30:37.977Z,10.03
2018-05-12T15:35:40.434Z,9.30
2018-05-12T15:40:43.885Z,9.93
2018-05-12T15:45:46.321Z,10.10
2018-05-12T15:50:48.843Z,10.00
2018-05-12T15:55:51.539Z,9.97
2018-05-12T16:00:54.002Z,10.13
2018-05-12T16:05:56.449Z,9.87
2018-05-12T16:10:58.966Z,9.57
2018-05-12T16:16:02.358Z,9.53
2018-05-12T16:21:06.085Z,8.87
2018-05-12T16:26:08.496Z,9.23
2018-05-12T16:31:11.786Z,7.97
2018-05-12T16:36:15.113Z,7.77
2018-05-12T16:41:18.303Z,9.17
2018-05-12T16:46:20.919Z,11.17
2018-05-12T16:51:23.610Z,12.60
2018-05-12T16:56:26.197Z,11.90
2018-05-12T17:01:29.430Z,12.23
2018-05-12T17:06:32.018Z,11.30
2018-05-12T17:11:34.472Z,11.53
2018-05-12T17:16:36.939Z,12.20
2018-05-12T17:21:39.407Z,12.63
2018-05-12T17:26:42.623Z,11.83
2018-05-12T17:31:45.862Z,11.87
2018-05-12T17:36:48.464Z,12.43
2018-05-12T17:41:50.975Z,12.43
2018-05-12T17:46:55.735Z,13.27
2018-05-12T17:51:58.380Z,14.03
2018-05-12T17:57:00.833Z,14.50
2018-05-12T18:02:04.372Z,13.73
2018-05-12T18:07:07.598Z,14.67
2018-05-12T18:12:10.166Z,15.20
2018-05-12T18:17:12.809Z,16.03
2018-05-12T18:22:16.004Z,16.67
2018-05-12T18:27:18.452Z,17.87
2018-05-12T18:32:20.928Z,17.30
2018-05-12T18:37:23.412Z,19.27
2018-05-12T18:42:25.863Z,19.90
2018-05-12T18:47:49.478Z,20.43
2018-05-12T18:52:51.937Z,21.30
2018-05-12T19:03:25.244Z,23.37
2018-05-12T19:08:27.735Z,23.13
2018-05-12T19:13:30.140Z,23.27
2018-05-12T19:18:50.683Z,22.73
2018-05-12T19:23:53.134Z,22.17
2018-05-12T19:28:56.977Z,22.27
2018-05-12T19:33:59.441Z,23.77
2018-05-12T19:39:01.906Z,23.60
2018-05-12T19:44:04.365Z,22.83
2018-05-12T19:49:06.890Z,23.20
2018-05-12T19:54:09.341Z,23.20
2018-05-12T19:59:11.933Z,23.13
2018-05-12T20:04:14.394Z,22.77
2018-05-12T20:09:16.868Z,23.40
2018-05-12T20:14:20.142Z,22.40
2018-05-12T20:19:22.611Z,22.50
2018-05-12T20:24:28.710Z,23.60
2018-05-12T20:29:32.952Z,23.77
2018-05-12T20:34:35.489Z,24.03
2018-05-12T20:39:37.939Z,22.63
2018-05-12T20:44:41.567Z,23.47
2018-05-12T20:49:44.805Z,25.67
2018-05-12T20:54:47.323Z,22.93
2018-05-12T20:59:49.874Z,22.77
2018-05-12T21:04:53.136Z,22.40
2018-05-12T21:15:14.693Z,23.23
2018-05-12T21:20:17.161Z,21.70
2018-05-12T21:25:19.680Z,23.70
2018-05-12T21:30:22.130Z,23.43
2018-05-12T21:35:25.472Z,23.03
2018-05-12T21:40:28.492Z,22.87
2018-05-12T21:50:57.610Z,22.80
2018-05-12T21:56:00.839Z,23.73
2018-05-12T22:01:03.339Z,23.63
2018-05-12T22:06:06.731Z,22.57
2018-05-12T22:11:10.170Z,23.93
2018-05-12T22:16:12.662Z,24.93
2018-05-12T22:21:28.778Z,23.67
2018-05-12T22:26:31.237Z,24.77
2018-05-12T22:31:34.465Z,23.73
2018-05-12T22:36:36.933Z,23.97
2018-05-12T22:41:57.850Z,24.07
2018-05-12T22:47:00.335Z,23.87
2018-05-12T22:52:02.802Z,25.63
2018-05-12T22:57:05.252Z,25.80
2018-05-12T23:02:12.098Z,26.57
2018-05-12T23:07:14.573Z,26.63
2018-05-12T23:12:17.866Z,25.70
2018-05-12T23:17:21.223Z,26.60
2018-05-12T23:22:23.722Z,27.00
2018-05-12T23:27:28.143Z,27.63
2018-05-12T23:32:30.617Z,25.43
2018-05-12T23:37:52.564Z,25.43
2018-05-12T23:42:55.034Z,27.27
2018-05-12T23:47:57.607Z,26.40
2018-05-12T23:53:00.078Z,27.80
2018-05-12T23:58:02.570Z,27.17
